createdAt,value
2019-03-25T00:01:06.343Z,20.29
2019-03-25T00:03:32.980Z,20.28
2019-03-25T00:05:59.731Z,20.21
2019-03-25T00:08:26.383Z,20.20
2019-03-25T00:10:53.038Z,20.21
2019-03-25T00:13:19.681Z,20.19
2019-03-25T00:15:46.329Z,20.17
2019-03-25T00:18:12.977Z,20.24
2019-03-25T00:20:40.675Z,20.20
2019-03-25T00:23:06.270Z,20.18
2019-03-25T00:25:32.962Z,20.17
2019-03-25T00:27:59.615Z,20.13
2019-03-25T00:30:26.257Z,20.17
2019-03-25T00:32:52.933Z,20.12
2019-03-25T00:35:19.585Z,20.12
2019-03-25T00:37:46.224Z,20.05
2019-03-25T00:40:12.880Z,20.06
2019-03-25T00:42:39.645Z,19.98
2019-03-25T00:45:06.296Z,20.06
2019-03-25T00:47:32.936Z,19.98
2019-03-25T00:49:59.574Z,20.02
2019-03-25T00:52:27.678Z,19.96
2019-03-25T00:54:52.906Z,19.94
2019-03-25T00:57:19.551Z,19.95
2019-03-25T00:59:48.824Z,19.95
2019-03-25T01:02:12.836Z,19.92
2019-03-25T01:04:39.513Z,19.87
2019-03-25T01:07:06.164Z,19.90
2019-03-25T01:09:32.820Z,19.89
2019-03-25T01:11:59.463Z,19.88
2019-03-25T01:14:26.101Z,19.82
2019-03-25T01:16:52.832Z,19.82
2019-03-25T01:19:19.472Z,19.85
2019-03-25T01:21:46.107Z,19.87
2019-03-25T01:24:12.761Z,19.82
2019-03-25T01:26:39.412Z,19.81
2019-03-25T01:29:06.056Z,19.80
2019-03-25T01:31:32.696Z,19.75
2019-03-25T01:33:59.348Z,19.82
2019-03-25T01:36:25.988Z,19.79
2019-03-25T01:38:52.644Z,19.74
2019-03-25T01:41:19.298Z,19.78
2019-03-25T01:43:45.948Z,19.77
2019-03-25T01:46:12.590Z,19.77
2019-03-25T01:48:39.255Z,19.77
2019-03-25T01:51:05.908Z,19.72
2019-03-25T01:53:32.598Z,19.72
2019-03-25T01:55:59.243Z,19.72
2019-03-25T01:58:25.880Z,19.74
2019-03-25T02:00:54.086Z,19.72
2019-03-25T02:03:19.187Z,19.70
2019-03-25T02:05:45.822Z,19.64
2019-03-25T02:08:12.465Z,19.68
2019-03-25T02:10:39.172Z,19.67
2019-03-25T02:13:05.771Z,19.61
2019-03-25T02:15:32.457Z,19.62
2019-03-25T02:17:59.096Z,19.61
2019-03-25T02:20:26.962Z,19.61
2019-03-25T02:22:52.748Z,19.63
2019-03-25T02:25:25.330Z,19.61
2019-03-25T02:27:45.822Z,19.57
2019-03-25T02:30:12.470Z,19.58
2019-03-25T02:32:39.260Z,19.49
2019-03-25T02:35:05.910Z,19.60
2019-03-25T02:37:32.601Z,19.48
2019-03-25T02:39:59.242Z,19.53
2019-03-25T02:42:25.894Z,19.49
2019-03-25T02:44:52.534Z,19.52
2019-03-25T02:47:19.177Z,19.53
2019-03-25T02:49:45.835Z,19.47
2019-03-25T02:52:12.487Z,19.47
2019-03-25T02:54:39.132Z,19.49
2019-03-25T02:57:05.784Z,19.42
2019-03-25T02:59:32.424Z,19.44
2019-03-25T03:01:59.071Z,19.41
2019-03-25T03:04:25.721Z,19.38
2019-03-25T03:06:52.359Z,19.46
2019-03-25T03:09:19.013Z,19.40
2019-03-25T03:11:45.660Z,19.40
2019-03-25T03:14:15.150Z,19.42
2019-03-25T03:16:38.944Z,19.35
2019-03-25T03:19:05.629Z,19.33
2019-03-25T03:21:32.249Z,19.37
2019-03-25T03:23:58.885Z,19.32
2019-03-25T03:26:25.523Z,19.28
2019-03-25T03:28:52.215Z,19.22
2019-03-25T03:31:18.857Z,19.31
2019-03-25T03:33:45.512Z,19.29
2019-03-25T03:36:12.194Z,19.29
2019-03-25T03:38:38.840Z,19.29
2019-03-25T03:41:05.502Z,19.27
2019-03-25T03:43:32.197Z,19.27
2019-03-25T03:45:58.838Z,19.25
2019-03-25T03:48:25.469Z,19.19
2019-03-25T03:50:52.130Z,19.23
2019-03-25T03:53:18.785Z,19.20
2019-03-25T03:55:45.462Z,19.17
2019-03-25T03:58:12.115Z,19.19
2019-03-25T04:00:38.754Z,19.14
2019-03-25T04:03:05.405Z,19.14
2019-03-25T04:05:32.046Z,19.12
2019-03-25T04:07:58.703Z,19.12
2019-03-25T04:10:25.379Z,19.00
2019-03-25T04:12:51.984Z,18.71
2019-03-25T04:15:18.638Z,18.62
2019-03-25T04:17:45.336Z,18.45
2019-03-25T04:20:11.967Z,18.17
2019-03-25T04:22:38.685Z,18.19
2019-03-25T04:25:05.278Z,18.02
2019-03-25T04:27:31.913Z,17.92
2019-03-25T04:29:58.577Z,18.20
2019-03-25T04:32:25.222Z,18.35
2019-03-25T04:34:51.862Z,18.35
2019-03-25T04:37:18.512Z,18.59
2019-03-25T04:39:45.158Z,18.74
2019-03-25T04:42:11.796Z,18.84
2019-03-25T04:44:38.478Z,18.92
2019-03-25T04:47:05.117Z,18.96
2019-03-25T04:49:31.809Z,19.09
2019-03-25T04:51:59.516Z,19.14
2019-03-25T04:54:26.194Z,19.22
2019-03-25T04:56:52.848Z,19.33
2019-03-25T04:59:19.527Z,19.39
2019-03-25T05:01:46.165Z,19.43
2019-03-25T05:04:12.843Z,19.54
2019-03-25T05:06:39.491Z,19.52
2019-03-25T05:09:06.191Z,19.55
2019-03-25T05:11:32.852Z,19.62
2019-03-25T05:13:59.488Z,19.83
2019-03-25T05:16:26.127Z,19.93
2019-03-25T05:18:52.772Z,20.04
2019-03-25T05:21:19.427Z,20.00
2019-03-25T05:23:46.089Z,20.05
2019-03-25T05:26:12.722Z,20.12
2019-03-25T05:28:39.384Z,20.25
2019-03-25T05:31:06.026Z,20.24
2019-03-25T05:33:32.659Z,20.27
2019-03-25T05:35:59.352Z,20.34
2019-03-25T05:38:25.990Z,20.36
2019-03-25T05:40:52.643Z,20.39
2019-03-25T05:43:21.145Z,20.51
2019-03-25T05:45:45.930Z,20.53
2019-03-25T05:48:12.616Z,20.60
2019-03-25T05:50:39.258Z,20.75
2019-03-25T05:53:05.897Z,20.74
2019-03-25T05:55:32.554Z,20.76
2019-03-25T05:57:59.196Z,20.87
2019-03-25T06:00:26.007Z,21.02
2019-03-25T06:02:52.726Z,21.10
2019-03-25T06:05:19.519Z,21.19
2019-03-25T06:07:46.166Z,21.26
2019-03-25T06:10:12.839Z,21.19
2019-03-25T06:12:39.582Z,21.23
2019-03-25T06:15:06.216Z,21.41
2019-03-25T06:17:32.879Z,21.44
2019-03-25T06:19:59.517Z,21.47
2019-03-25T06:22:26.164Z,21.45
2019-03-25T06:24:52.800Z,21.60
2019-03-25T06:27:19.506Z,21.52
2019-03-25T06:29:46.148Z,21.50
2019-03-25T06:32:12.794Z,21.56
2019-03-25T06:34:39.449Z,21.65
2019-03-25T06:37:06.097Z,21.73
2019-03-25T06:39:32.735Z,21.74
2019-03-25T06:41:59.383Z,21.84
2019-03-25T06:44:26.061Z,21.79
2019-03-25T06:46:52.740Z,21.80
2019-03-25T06:49:19.487Z,21.91
2019-03-25T06:51:46.165Z,21.91
2019-03-25T06:54:13.902Z,22.03
2019-03-25T06:56:40.590Z,22.02
2019-03-25T06:59:07.246Z,22.14
2019-03-25T07:01:33.927Z,22.13
2019-03-25T07:04:00.588Z,22.11
2019-03-25T07:06:27.276Z,22.13
2019-03-25T07:08:53.923Z,22.26
2019-03-25T07:11:20.559Z,22.23
2019-03-25T07:13:47.265Z,22.23
2019-03-25T07:16:13.926Z,22.33
2019-03-25T07:18:40.567Z,22.25
2019-03-25T07:21:07.226Z,22.36
2019-03-25T07:23:34.006Z,22.47
2019-03-25T07:26:00.692Z,22.48
2019-03-25T07:28:27.351Z,22.53
2019-03-25T07:30:54.005Z,22.58
2019-03-25T07:33:20.768Z,22.63
2019-03-25T07:35:47.445Z,22.61
2019-03-25T07:38:14.250Z,22.59
2019-03-25T07:40:40.917Z,22.63
2019-03-25T07:43:07.734Z,22.65
2019-03-25T07:45:38.117Z,22.67
2019-03-25T07:48:04.787Z,22.69
2019-03-25T07:50:31.445Z,22.64
2019-03-25T07:52:58.246Z,22.77
2019-03-25T07:55:24.885Z,22.84
2019-03-25T07:57:51.588Z,22.79
2019-03-25T08:00:18.730Z,22.82
2019-03-25T08:02:45.447Z,22.82
2019-03-25T08:05:12.191Z,22.90
2019-03-25T08:07:38.882Z,22.97
2019-03-25T08:10:05.556Z,22.95
2019-03-25T08:12:32.215Z,23.04
2019-03-25T08:14:58.861Z,22.93
2019-03-25T08:17:25.497Z,23.02
2019-03-25T08:19:52.223Z,23.09
2019-03-25T08:22:18.925Z,23.09
2019-03-25T08:24:45.561Z,22.98
2019-03-25T08:27:12.212Z,23.11
2019-03-25T08:29:38.944Z,22.97
2019-03-25T08:32:05.592Z,23.09
2019-03-25T08:34:32.254Z,23.12
2019-03-25T08:36:58.935Z,23.16
2019-03-25T08:39:25.631Z,23.17
2019-03-25T08:41:52.271Z,23.20
2019-03-25T08:44:18.994Z,23.16
2019-03-25T08:46:45.624Z,23.13
2019-03-25T08:49:12.283Z,23.13
2019-03-25T08:51:40.036Z,23.16
2019-03-25T08:54:06.716Z,23.24
2019-03-25T08:56:33.399Z,23.21
2019-03-25T08:59:00.055Z,23.27
2019-03-25T09:01:26.703Z,23.26
2019-03-25T09:03:53.392Z,23.30
2019-03-25T09:06:20.072Z,23.19
2019-03-25T09:08:46.807Z,23.25
2019-03-25T09:11:13.503Z,23.26
2019-03-25T09:13:40.142Z,23.09
2019-03-25T09:16:06.866Z,23.25
2019-03-25T09:18:33.591Z,23.33
2019-03-25T09:21:00.854Z,23.27
2019-03-25T09:23:30.416Z,23.32
2019-03-25T09:25:57.151Z,23.40
2019-03-25T09:28:24.740Z,23.26
2019-03-25T09:30:50.458Z,23.28
2019-03-25T09:33:17.276Z,23.23
2019-03-25T09:35:43.943Z,23.32
2019-03-25T09:38:10.612Z,23.31
2019-03-25T09:40:37.274Z,23.26
2019-03-25T09:43:03.930Z,23.26
2019-03-25T09:45:30.612Z,23.35
2019-03-25T09:47:57.246Z,23.28
2019-03-25T09:50:23.942Z,23.18
2019-03-25T09:52:50.624Z,23.24
2019-03-25T09:55:17.265Z,23.26
2019-03-25T09:57:43.919Z,23.09
2019-03-25T10:00:10.592Z,23.28
2019-03-25T10:02:37.353Z,23.45
2019-03-25T10:05:03.995Z,23.35
2019-03-25T10:07:30.659Z,23.35
2019-03-25T10:09:57.290Z,23.34
2019-03-25T10:12:23.976Z,23.30
2019-03-25T10:14:53.237Z,23.43
2019-03-25T10:17:19.894Z,23.39
2019-03-25T10:19:46.550Z,23.40
2019-03-25T10:22:13.213Z,23.44
2019-03-25T10:24:39.848Z,23.39
2019-03-25T10:27:06.505Z,23.48
2019-03-25T10:29:33.206Z,23.56
2019-03-25T10:32:01.945Z,23.57
2019-03-25T10:34:28.637Z,23.51
2019-03-25T10:36:58.400Z,23.62
2019-03-25T10:39:25.071Z,23.62
2019-03-25T10:41:51.691Z,23.64
2019-03-25T10:44:18.332Z,23.63
2019-03-25T10:46:44.989Z,23.64
2019-03-25T10:49:11.729Z,23.69
2019-03-25T10:51:38.475Z,23.71
2019-03-25T10:54:05.339Z,23.75
2019-03-25T10:56:32.053Z,23.80
2019-03-25T10:58:58.751Z,23.81
2019-03-25T11:01:25.438Z,23.79
2019-03-25T11:03:52.044Z,23.77
2019-03-25T11:06:18.681Z,23.85
2019-03-25T11:08:45.321Z,23.87
2019-03-25T11:11:12.005Z,23.85
2019-03-25T11:13:38.736Z,23.85
2019-03-25T11:16:05.383Z,23.91
2019-03-25T11:18:32.059Z,23.89
2019-03-25T11:20:58.698Z,24.01
2019-03-25T11:23:25.483Z,24.09
2019-03-25T11:25:52.123Z,24.07
2019-03-25T11:28:18.785Z,24.06
2019-03-25T11:30:45.424Z,24.12
2019-03-25T11:33:12.092Z,24.17
2019-03-25T11:35:38.784Z,24.15
2019-03-25T11:38:05.444Z,24.20
2019-03-25T11:40:32.083Z,24.33
2019-03-25T11:42:58.755Z,24.36
2019-03-25T11:45:25.537Z,24.36
2019-03-25T11:47:53.981Z,24.37
2019-03-25T11:50:18.877Z,24.45
2019-03-25T11:52:46.223Z,24.39
2019-03-25T11:55:13.342Z,24.56
2019-03-25T11:57:40.056Z,24.47
2019-03-25T12:00:06.795Z,24.24
2019-03-25T12:02:33.556Z,24.49
2019-03-25T12:05:00.314Z,24.48
2019-03-25T12:07:26.839Z,24.48
2019-03-25T12:09:53.523Z,24.46
2019-03-25T12:12:20.173Z,24.48
2019-03-25T12:14:46.830Z,24.38
2019-03-25T12:17:13.559Z,24.39
2019-03-25T12:19:40.303Z,24.54
2019-03-25T12:22:07.046Z,24.48
2019-03-25T12:24:33.706Z,24.52
2019-03-25T12:27:00.389Z,24.55
2019-03-25T12:29:30.468Z,24.58
2019-03-25T12:31:54.848Z,24.59
2019-03-25T12:34:21.637Z,24.57
2019-03-25T12:36:48.264Z,24.59
2019-03-25T12:39:14.907Z,24.57
2019-03-25T12:41:41.600Z,24.61
2019-03-25T12:44:08.287Z,24.62
2019-03-25T12:46:35.051Z,24.64
2019-03-25T12:49:01.763Z,24.62
2019-03-25T12:51:28.429Z,24.60
2019-03-25T12:53:55.062Z,24.63
2019-03-25T12:56:22.751Z,24.63
2019-03-25T12:58:49.390Z,24.71
2019-03-25T13:01:16.042Z,24.70
2019-03-25T13:03:42.742Z,24.76
2019-03-25T13:06:09.423Z,24.79
2019-03-25T13:08:36.069Z,24.78
2019-03-25T13:11:06.146Z,24.76
2019-03-25T13:13:32.792Z,24.80
2019-03-25T13:15:59.614Z,24.76
2019-03-25T13:18:26.310Z,24.81
2019-03-25T13:20:54.027Z,24.88
2019-03-25T13:23:20.671Z,24.82
2019-03-25T13:25:47.319Z,24.74
2019-03-25T13:28:14.005Z,24.87
2019-03-25T13:30:40.770Z,24.81
2019-03-25T13:33:07.420Z,24.86
2019-03-25T13:35:34.087Z,24.87
2019-03-25T13:38:00.833Z,24.88
2019-03-25T13:40:27.504Z,24.84
2019-03-25T13:42:54.267Z,24.84
2019-03-25T13:45:20.924Z,24.99
2019-03-25T13:47:47.656Z,24.95
2019-03-25T13:50:14.366Z,24.97
2019-03-25T13:52:41.039Z,25.02
2019-03-25T13:55:07.716Z,25.06
2019-03-25T13:57:34.364Z,25.13
2019-03-25T14:00:03.741Z,25.18
2019-03-25T14:02:27.703Z,25.06
2019-03-25T14:04:54.387Z,25.10
2019-03-25T14:07:21.084Z,25.02
2019-03-25T14:09:47.731Z,25.01
2019-03-25T14:12:14.408Z,24.97
2019-03-25T14:14:41.090Z,25.02
2019-03-25T14:17:07.837Z,24.96
2019-03-25T14:19:34.545Z,25.01
2019-03-25T14:22:01.185Z,24.90
2019-03-25T14:24:27.898Z,24.92
2019-03-25T14:26:54.528Z,25.03
2019-03-25T14:29:21.183Z,24.97
2019-03-25T14:31:47.859Z,25.01
2019-03-25T14:34:14.676Z,24.81
2019-03-25T14:36:41.163Z,24.92
2019-03-25T14:39:07.817Z,24.78
2019-03-25T14:41:34.592Z,24.79
2019-03-25T14:44:01.332Z,24.93
2019-03-25T14:46:28.014Z,24.84
2019-03-25T14:48:54.709Z,24.75
2019-03-25T14:51:21.466Z,24.72
2019-03-25T14:53:48.112Z,24.71
2019-03-25T14:56:14.835Z,24.70
2019-03-25T14:58:41.473Z,24.66
2019-03-25T15:01:08.158Z,24.71
2019-03-25T15:03:34.811Z,24.76
2019-03-25T15:06:01.481Z,24.65
2019-03-25T15:08:28.221Z,24.66
2019-03-25T15:10:54.861Z,24.64
2019-03-25T15:13:21.547Z,24.59
2019-03-25T15:15:48.235Z,24.66
2019-03-25T15:18:15.755Z,24.60
2019-03-25T15:20:41.581Z,24.56
2019-03-25T15:23:08.366Z,24.51
2019-03-25T15:25:35.020Z,24.47
2019-03-25T15:28:01.687Z,24.43
2019-03-25T15:30:35.895Z,24.43
2019-03-25T15:32:55.021Z,24.44
2019-03-25T15:35:21.660Z,24.42
2019-03-25T15:37:48.323Z,24.39
2019-03-25T15:40:15.080Z,24.39
2019-03-25T15:42:41.673Z,24.31
2019-03-25T15:45:08.342Z,24.32
2019-03-25T15:47:35.104Z,24.30
2019-03-25T15:50:01.632Z,24.24
2019-03-25T15:52:28.279Z,24.38
2019-03-25T15:54:54.933Z,24.20
2019-03-25T15:57:21.595Z,24.18
2019-03-25T15:59:48.261Z,24.16
2019-03-25T16:02:15.009Z,24.16
2019-03-25T16:04:41.651Z,24.11
2019-03-25T16:07:08.313Z,24.11
2019-03-25T16:09:34.961Z,24.08
2019-03-25T16:12:01.614Z,24.11
2019-03-25T16:14:28.251Z,24.18
2019-03-25T16:16:54.900Z,24.08
2019-03-25T16:19:21.532Z,24.17
2019-03-25T16:21:48.186Z,24.11
2019-03-25T16:24:14.821Z,24.02
2019-03-25T16:26:41.454Z,23.98
2019-03-25T16:29:08.104Z,23.94
2019-03-25T16:31:34.748Z,23.91
2019-03-25T16:34:01.387Z,23.92
2019-03-25T16:36:28.034Z,23.91
2019-03-25T16:38:54.683Z,23.93
2019-03-25T16:41:21.316Z,23.89
2019-03-25T16:43:47.976Z,23.86
2019-03-25T16:46:14.626Z,23.85
2019-03-25T16:48:41.285Z,23.85
2019-03-25T16:51:07.924Z,23.83
2019-03-25T16:53:34.576Z,23.82
2019-03-25T16:56:01.236Z,23.82
2019-03-25T16:58:27.884Z,23.79
2019-03-25T17:00:54.539Z,23.79
2019-03-25T17:03:21.224Z,23.77
2019-03-25T17:05:47.931Z,23.75
2019-03-25T17:08:14.578Z,23.75
2019-03-25T17:10:41.278Z,23.74
2019-03-25T17:13:07.926Z,23.71
2019-03-25T17:15:34.589Z,23.67
2019-03-25T17:18:01.234Z,23.66
2019-03-25T17:20:27.880Z,23.82
2019-03-25T17:22:54.528Z,23.69
2019-03-25T17:25:21.216Z,23.65
2019-03-25T17:27:47.857Z,23.60
2019-03-25T17:30:14.507Z,23.56
2019-03-25T17:32:41.200Z,23.59
2019-03-25T17:35:07.840Z,23.57
2019-03-25T17:37:34.475Z,23.58
2019-03-25T17:40:01.152Z,23.66
2019-03-25T17:42:27.789Z,23.60
2019-03-25T17:44:54.433Z,23.53
2019-03-25T17:47:21.076Z,23.52
2019-03-25T17:49:47.728Z,23.51
2019-03-25T17:52:14.368Z,23.48
2019-03-25T17:54:41.114Z,23.48
2019-03-25T17:57:07.799Z,23.47
2019-03-25T17:59:34.480Z,23.46
2019-03-25T18:02:01.134Z,23.43
2019-03-25T18:04:31.005Z,23.42
2019-03-25T18:06:57.656Z,23.41
2019-03-25T18:09:24.309Z,23.39
2019-03-25T18:11:50.955Z,23.39
2019-03-25T18:14:17.686Z,23.38
2019-03-25T18:16:44.333Z,23.36
2019-03-25T18:19:10.977Z,23.47
2019-03-25T18:21:37.613Z,23.36
2019-03-25T18:24:04.275Z,23.34
2019-03-25T18:26:30.905Z,23.30
2019-03-25T18:28:57.546Z,23.28
2019-03-25T18:31:24.191Z,23.25
2019-03-25T18:33:50.832Z,23.22
2019-03-25T18:36:17.470Z,23.27
2019-03-25T18:38:44.105Z,23.27
2019-03-25T18:41:10.782Z,23.28
2019-03-25T18:43:37.429Z,23.18
2019-03-25T18:46:04.183Z,23.16
2019-03-25T18:48:30.837Z,23.04
2019-03-25T18:50:57.469Z,23.10
2019-03-25T18:53:24.127Z,23.10
2019-03-25T18:55:50.785Z,23.06
2019-03-25T18:58:17.420Z,23.08
2019-03-25T19:00:44.065Z,23.05
2019-03-25T19:03:10.713Z,22.99
2019-03-25T19:05:37.361Z,23.01
2019-03-25T19:08:04.024Z,23.03
2019-03-25T19:10:30.661Z,23.00
2019-03-25T19:12:57.310Z,22.98
2019-03-25T19:15:23.958Z,23.03
2019-03-25T19:17:50.612Z,22.97
2019-03-25T19:20:17.243Z,22.96
2019-03-25T19:22:43.909Z,23.03
2019-03-25T19:25:10.563Z,23.01
2019-03-25T19:27:37.207Z,22.94
2019-03-25T19:30:03.858Z,22.90
2019-03-25T19:32:30.505Z,22.85
2019-03-25T19:34:57.161Z,22.81
2019-03-25T19:37:23.812Z,22.85
2019-03-25T19:39:50.446Z,22.84
2019-03-25T19:42:17.086Z,22.84
2019-03-25T19:44:43.729Z,22.81
2019-03-25T19:47:10.390Z,22.82
2019-03-25T19:49:37.050Z,22.77
2019-03-25T19:52:03.720Z,22.79
2019-03-25T19:54:30.405Z,22.78
2019-03-25T19:56:57.032Z,22.79
2019-03-25T19:59:23.748Z,22.77
2019-03-25T20:01:50.349Z,22.72
2019-03-25T20:04:16.988Z,22.74
2019-03-25T20:06:43.657Z,22.70
2019-03-25T20:09:10.303Z,22.69
2019-03-25T20:11:36.966Z,22.70
2019-03-25T20:14:03.659Z,22.67
2019-03-25T20:16:30.302Z,22.68
2019-03-25T20:18:56.949Z,22.64
2019-03-25T20:21:23.626Z,22.65
2019-03-25T20:23:50.711Z,22.65
2019-03-25T20:26:16.995Z,22.57
2019-03-25T20:28:43.700Z,22.62
2019-03-25T20:31:10.307Z,22.57
2019-03-25T20:33:37.230Z,22.59
2019-03-25T20:36:03.824Z,22.60
2019-03-25T20:38:30.455Z,22.60
2019-03-25T20:40:57.111Z,22.58
2019-03-25T20:43:23.805Z,22.58
2019-03-25T20:45:50.452Z,22.55
2019-03-25T20:48:17.116Z,22.53
2019-03-25T20:50:45.163Z,22.51
2019-03-25T20:53:10.339Z,22.51
2019-03-25T20:55:37.063Z,22.50
2019-03-25T20:58:03.782Z,22.51
2019-03-25T21:00:30.517Z,22.49
2019-03-25T21:02:57.159Z,22.47
2019-03-25T21:05:23.784Z,22.47
2019-03-25T21:07:50.456Z,22.43
2019-03-25T21:10:17.095Z,22.44
2019-03-25T21:12:43.776Z,22.43
2019-03-25T21:15:10.487Z,22.41
2019-03-25T21:17:37.131Z,22.40
2019-03-25T21:20:03.706Z,22.37
2019-03-25T21:22:30.384Z,22.36
2019-03-25T21:24:57.019Z,22.35
2019-03-25T21:27:23.717Z,22.30
2019-03-25T21:29:50.307Z,22.31
2019-03-25T21:32:17.053Z,22.28
2019-03-25T21:34:43.694Z,22.31
2019-03-25T21:37:10.253Z,22.28
2019-03-25T21:39:36.885Z,22.25
2019-03-25T21:42:03.551Z,22.24
2019-03-25T21:44:30.242Z,22.23
2019-03-25T21:46:56.911Z,22.22
2019-03-25T21:49:23.568Z,22.22
2019-03-25T21:51:50.202Z,22.22
2019-03-25T21:54:16.838Z,22.20
2019-03-25T21:56:43.498Z,22.17
2019-03-25T21:59:10.132Z,22.17
2019-03-25T22:01:36.760Z,22.16
2019-03-25T22:04:03.391Z,22.16
2019-03-25T22:06:30.076Z,22.12
2019-03-25T22:08:56.717Z,22.11
2019-03-25T22:11:23.355Z,22.09
2019-03-25T22:13:49.991Z,22.08
2019-03-25T22:16:16.649Z,22.09
2019-03-25T22:18:43.315Z,22.10
2019-03-25T22:21:09.950Z,22.07
2019-03-25T22:23:36.590Z,22.10
2019-03-25T22:26:03.236Z,22.05
2019-03-25T22:28:29.882Z,22.04
2019-03-25T22:30:56.516Z,22.00
2019-03-25T22:33:25.959Z,21.98
2019-03-25T22:35:49.795Z,21.99
2019-03-25T22:38:16.489Z,21.97
2019-03-25T22:40:43.124Z,21.97
2019-03-25T22:43:09.816Z,21.94
2019-03-25T22:45:36.515Z,21.93
2019-03-25T22:48:03.159Z,21.95
2019-03-25T22:50:29.812Z,21.92
2019-03-25T22:52:56.462Z,21.91
2019-03-25T22:55:23.539Z,21.92
2019-03-25T22:57:49.794Z,21.88
2019-03-25T23:00:16.436Z,21.87
2019-03-25T23:02:43.104Z,21.88
2019-03-25T23:05:09.738Z,21.85
2019-03-25T23:07:36.379Z,21.83
2019-03-25T23:10:03.033Z,21.81
2019-03-25T23:12:29.716Z,21.81
2019-03-25T23:14:56.360Z,21.76
2019-03-25T23:17:23.004Z,21.79
2019-03-25T23:19:49.644Z,21.75
2019-03-25T23:22:16.281Z,21.74
2019-03-25T23:24:42.926Z,21.75
2019-03-25T23:27:09.567Z,21.73
2019-03-25T23:29:36.204Z,21.75
2019-03-25T23:32:02.859Z,21.71
2019-03-25T23:34:29.504Z,21.70
2019-03-25T23:36:56.164Z,21.71
2019-03-25T23:39:25.070Z,21.71
2019-03-25T23:41:49.449Z,21.66
2019-03-25T23:44:16.104Z,21.65
2019-03-25T23:46:42.754Z,21.62
2019-03-25T23:49:09.446Z,21.64
2019-03-25T23:51:36.082Z,21.61
2019-03-25T23:54:02.831Z,21.66
2019-03-25T23:56:29.479Z,21.60
2019-03-25T23:58:56.161Z,21.58
